createdAt,value
2019-04-20T00:03:51.969Z,29.63
2019-04-20T00:09:06.155Z,29.60
2019-04-20T00:14:10.962Z,27.40
2019-04-20T00:19:17.255Z,26.07
2019-04-20T00:24:33.232Z,24.60
2019-04-20T00:29:54.889Z,24.77
2019-04-20T00:34:45.390Z,25.63
2019-04-20T00:39:49.287Z,21.48
2019-04-20T00:45:00.634Z,22.03
2019-04-20T00:50:19.549Z,21.30
2019-04-20T00:55:08.327Z,19.62
2019-04-20T01:00:31.055Z,21.68
2019-04-20T01:05:55.537Z,21.12
2019-04-20T01:10:41.647Z,24.02
2019-04-20T01:15:54.165Z,28.38
2019-04-20T01:20:53.552Z,37.17
2019-04-20T01:26:05.700Z,23.33
2019-04-20T01:31:31.578Z,23.60
2019-04-20T01:36:46.183Z,26.12
2019-04-20T01:41:39.297Z,22.27
2019-04-20T01:46:50.708Z,22.67
2019-04-20T01:52:04.931Z,22.82
2019-04-20T01:57:24.792Z,24.10
2019-04-20T02:02:34.369Z,23.90
2019-04-20T02:07:43.773Z,27.27
2019-04-20T02:12:53.890Z,26.15
2019-04-20T02:18:07.677Z,26.33
2019-04-20T02:23:16.471Z,21.47
2019-04-20T02:28:25.724Z,22.90
2019-04-20T02:39:26.405Z,25.10
2019-04-20T02:44:18.054Z,27.40
2019-04-20T02:49:32.468Z,25.47
2019-04-20T02:54:26.454Z,24.47
2019-04-20T02:59:54.252Z,27.27
2019-04-20T03:04:20.373Z,26.60
2019-04-20T03:09:33.082Z,26.40
2019-04-20T03:14:40.076Z,24.17
2019-04-20T03:19:44.871Z,22.90
2019-04-20T03:25:03.637Z,24.30
2019-04-20T03:30:22.296Z,22.67
2019-04-20T03:40:19.109Z,29.40
2019-04-20T03:45:14.989Z,37.20
2019-04-20T03:50:43.575Z,33.83
2019-04-20T03:56:02.265Z,32.73
2019-04-20T04:01:45.211Z,24.90
2019-04-20T04:06:24.353Z,20.33
2019-04-20T04:11:41.504Z,25.80
2019-04-20T04:16:38.370Z,21.10
2019-04-20T04:21:54.919Z,23.60
2019-04-20T04:26:59.412Z,25.07
2019-04-20T04:32:46.806Z,29.27
2019-04-20T04:37:16.433Z,26.47
2019-04-20T04:42:30.406Z,28.47
2019-04-20T04:47:14.818Z,27.80
2019-04-20T04:52:29.422Z,25.13
2019-04-20T04:57:26.353Z,29.17
2019-04-20T05:02:39.315Z,24.13
2019-04-20T05:07:52.055Z,33.47
2019-04-20T05:12:51.806Z,26.37
2019-04-20T05:18:20.664Z,29.73
2019-04-20T05:23:24.379Z,26.53
2019-04-20T05:28:32.535Z,23.60
2019-04-20T05:33:56.059Z,24.13
2019-04-20T05:38:55.781Z,23.63
2019-04-20T05:44:09.872Z,24.07
2019-04-20T05:49:21.963Z,24.23
2019-04-20T05:54:32.662Z,25.30
2019-04-20T06:00:13.934Z,26.63
2019-04-20T06:05:25.525Z,28.07
2019-04-20T06:10:31.704Z,26.97
2019-04-20T06:15:40.749Z,25.13
2019-04-20T06:20:48.424Z,23.10
2019-04-20T06:30:55.247Z,21.47
2019-04-20T06:36:20.510Z,27.30
2019-04-20T06:41:30.230Z,31.40
2019-04-20T06:46:24.027Z,24.07
2019-04-20T06:51:40.995Z,23.00
2019-04-20T06:56:45.456Z,25.03
2019-04-20T07:02:11.968Z,23.03
2019-04-20T07:07:14.372Z,23.87
2019-04-20T07:12:12.312Z,24.10
2019-04-20T07:17:58.969Z,21.60
2019-04-20T07:23:18.159Z,23.97
2019-04-20T07:28:27.766Z,26.50
2019-04-20T07:33:30.328Z,25.30
2019-04-20T07:38:40.228Z,26.67
2019-04-20T07:43:54.008Z,24.53
2019-04-20T07:48:54.088Z,24.50
2019-04-20T07:53:59.514Z,24.90
2019-04-20T07:58:52.756Z,25.37
2019-04-20T08:04:39.061Z,22.32
2019-04-20T08:09:34.956Z,23.30
2019-04-20T08:15:03.550Z,27.45
2019-04-20T08:20:05.777Z,28.53
2019-04-20T08:25:12.587Z,28.47
2019-04-20T08:30:32.298Z,26.10
2019-04-20T08:35:48.095Z,24.43
2019-04-20T08:40:49.018Z,25.23
2019-04-20T08:46:03.109Z,22.98
2019-04-20T08:51:07.334Z,26.60
2019-04-20T08:56:15.900Z,23.62
2019-04-20T09:01:10.137Z,24.47
2019-04-20T09:06:31.026Z,22.75
2019-04-20T09:11:45.179Z,21.37
2019-04-20T09:16:35.672Z,21.87
2019-04-20T09:21:46.238Z,21.80
2019-04-20T09:27:01.159Z,21.80
2019-04-20T09:32:16.946Z,22.93
2019-04-20T09:37:44.710Z,22.97
2019-04-20T09:42:36.795Z,23.87
2019-04-20T09:47:46.828Z,24.45
2019-04-20T09:53:07.584Z,24.20
2019-04-20T09:58:08.471Z,23.00
2019-04-20T10:03:04.427Z,22.47
2019-04-20T10:08:11.364Z,22.47
2019-04-20T10:13:23.031Z,23.45
2019-04-20T10:18:28.247Z,23.10
2019-04-20T10:23:34.555Z,23.85
2019-04-20T10:28:41.406Z,23.62
2019-04-20T10:33:46.765Z,21.37
2019-04-20T10:38:52.701Z,21.60
2019-04-20T10:43:58.734Z,20.85
2019-04-20T10:49:04.889Z,21.97
2019-04-20T10:54:12.199Z,20.20
2019-04-20T10:59:19.283Z,22.53
2019-04-20T11:04:26.326Z,22.55
2019-04-20T11:09:32.492Z,20.92
2019-04-20T11:14:40.906Z,22.50
2019-04-20T11:19:47.571Z,22.48
2019-04-20T11:24:54.212Z,22.10
2019-04-20T11:30:02.591Z,23.02
2019-04-20T11:35:18.986Z,17.95
2019-04-20T11:40:16.764Z,20.00
2019-04-20T11:45:22.607Z,19.30
2019-04-20T11:50:29.612Z,19.37
2019-04-20T11:55:36.234Z,19.67
2019-04-20T12:00:57.659Z,18.70
2019-04-20T12:05:57.412Z,19.27
2019-04-20T12:11:21.362Z,20.17
2019-04-20T12:16:12.009Z,19.85
2019-04-20T12:21:36.876Z,18.95
2019-04-20T12:26:43.047Z,19.67
2019-04-20T12:32:01.238Z,19.73
2019-04-20T12:37:05.021Z,19.55
2019-04-20T12:42:14.777Z,18.10
2019-04-20T12:47:21.617Z,18.35
2019-04-20T12:52:28.356Z,18.90
2019-04-20T12:57:34.490Z,18.57
2019-04-20T13:02:43.263Z,17.57
2019-04-20T13:07:56.027Z,18.90
2019-04-20T13:13:22.687Z,18.35
2019-04-20T13:18:50.919Z,19.40
2019-04-20T13:23:56.939Z,18.17
2019-04-20T13:29:02.643Z,18.53
2019-04-20T13:34:07.853Z,18.20
2019-04-20T13:39:14.298Z,17.60
2019-04-20T13:44:35.218Z,18.73
2019-04-20T13:49:40.975Z,18.30
2019-04-20T13:55:10.908Z,18.67
2019-04-20T14:00:54.117Z,18.30
2019-04-20T14:06:30.375Z,18.52
2019-04-20T14:11:35.698Z,18.17
2019-04-20T14:16:41.620Z,17.90
2019-04-20T14:21:48.132Z,18.90
2019-04-20T14:26:54.829Z,21.40
2019-04-20T14:32:07.698Z,21.82
2019-04-20T14:37:13.351Z,22.67
2019-04-20T14:42:30.187Z,20.50
2019-04-20T14:47:27.890Z,19.93
2019-04-20T14:52:35.473Z,19.57
2019-04-20T14:57:43.535Z,19.70
2019-04-20T15:02:50.022Z,19.45
2019-04-20T15:07:56.408Z,20.72
2019-04-20T15:13:06.209Z,19.23
2019-04-20T15:18:13.377Z,19.05
2019-04-20T15:23:21.921Z,19.48
2019-04-20T15:28:28.409Z,19.37
2019-04-20T15:33:34.790Z,20.12
2019-04-20T15:38:40.917Z,19.37
2019-04-20T15:43:48.987Z,21.30
2019-04-20T15:48:55.522Z,21.23
2019-04-20T15:54:02.194Z,19.73
2019-04-20T15:59:08.427Z,19.23
2019-04-20T16:04:35.601Z,19.20
2019-04-20T16:09:38.407Z,18.93
2019-04-20T16:14:55.479Z,21.30
2019-04-20T16:20:10.331Z,19.30
2019-04-20T16:25:32.709Z,18.55
2019-04-20T16:30:45.508Z,17.90
2019-04-20T16:35:52.257Z,19.27
2019-04-20T16:40:57.443Z,19.93
2019-04-20T16:46:03.448Z,19.07
2019-04-20T16:51:10.914Z,18.52
2019-04-20T16:56:19.437Z,19.50
2019-04-20T17:01:25.614Z,20.85
2019-04-20T17:06:32.094Z,18.05
2019-04-20T17:11:37.331Z,18.25
2019-04-20T17:16:44.053Z,19.27
2019-04-20T17:21:53.383Z,18.20
2019-04-20T17:27:19.152Z,18.45
2019-04-20T17:32:25.490Z,19.05
2019-04-20T17:37:37.664Z,18.65
2019-04-20T17:42:50.973Z,18.13
2019-04-20T17:48:04.690Z,18.23
2019-04-20T17:53:08.721Z,17.52
2019-04-20T17:58:05.653Z,17.97
2019-04-20T18:03:50.917Z,18.90
2019-04-20T18:08:36.939Z,19.60
2019-04-20T18:13:31.045Z,22.13
2019-04-20T18:19:01.484Z,20.97
2019-04-20T18:23:58.271Z,21.75
2019-04-20T18:29:26.237Z,21.60
2019-04-20T18:34:21.988Z,20.27
2019-04-20T18:39:38.625Z,18.37
2019-04-20T18:44:55.842Z,18.80
2019-04-20T18:49:50.449Z,19.48
2019-04-20T18:54:49.814Z,22.75
2019-04-20T18:59:56.437Z,25.60
2019-04-20T19:05:03.863Z,20.70
2019-04-20T19:10:18.673Z,19.57
2019-04-20T19:15:56.602Z,19.32
2019-04-20T19:20:55.324Z,19.45
2019-04-20T19:26:08.682Z,20.60
2019-04-20T19:31:25.229Z,21.00
2019-04-20T19:36:27.585Z,19.20
2019-04-20T19:41:37.809Z,22.00
2019-04-20T19:46:49.267Z,21.90
2019-04-20T19:52:14.875Z,21.20
2019-04-20T19:57:01.357Z,21.37
2019-04-20T20:01:53.831Z,24.52
2019-04-20T20:07:05.165Z,28.92
2019-04-20T20:12:12.253Z,33.98
2019-04-20T20:18:15.611Z,30.10
2019-04-20T20:23:21.273Z,27.45
2019-04-20T20:28:39.596Z,29.07
2019-04-20T20:33:49.681Z,28.42
2019-04-20T20:38:46.926Z,26.35
2019-04-20T20:44:02.686Z,25.02
2019-04-20T20:49:16.091Z,27.65
2019-04-20T20:54:22.292Z,23.80
2019-04-20T20:59:26.779Z,23.73
2019-04-20T21:04:21.731Z,23.90
2019-04-20T21:09:27.342Z,21.45
2019-04-20T21:14:35.362Z,21.37
2019-04-20T21:19:57.956Z,19.45
2019-04-20T21:24:51.454Z,19.90
2019-04-20T21:30:00.487Z,20.32
2019-04-20T21:35:10.397Z,20.30
2019-04-20T21:40:22.932Z,21.80
2019-04-20T21:45:25.671Z,21.23
2019-04-20T21:50:44.101Z,22.67
2019-04-20T21:55:36.095Z,23.10
2019-04-20T22:01:05.154Z,23.75
2019-04-20T22:06:06.822Z,30.57
2019-04-20T22:11:13.662Z,23.20
2019-04-20T22:16:20.838Z,23.87
2019-04-20T22:21:42.497Z,21.73
2019-04-20T22:26:41.613Z,22.90
2019-04-20T22:31:46.208Z,25.48
2019-04-20T22:36:50.326Z,27.42
2019-04-20T22:42:00.120Z,30.05
2019-04-20T22:47:05.520Z,30.23
2019-04-20T22:52:26.581Z,30.60
2019-04-20T22:57:39.338Z,31.40
2019-04-20T23:02:29.586Z,31.80
2019-04-20T23:07:36.945Z,28.85
2019-04-20T23:13:16.264Z,34.20
2019-04-20T23:18:22.441Z,44.18
2019-04-20T23:23:30.471Z,41.45
2019-04-20T23:28:35.533Z,34.45
2019-04-20T23:33:40.565Z,35.40
2019-04-20T23:38:49.001Z,33.47
2019-04-20T23:44:08.718Z,33.57
2019-04-20T23:49:30.931Z,31.65
2019-04-20T23:54:37.279Z,31.77
2019-04-20T23:59:44.373Z,31.23
